Livingston, Kentucky
Current Conditions -  °F | °C
As of 3:08 AM on Tuesday 27 Jan 2015 (Local Time) from KLOZ Reporting Station
Unknown Precip Unknown Precip  
Wind Chill: 30°   Ceiling: 1100
Heat Index: 30°   Visibility: 6mi
Dew Point: 24°   Wind: 0mph
Humidity: 79%   Direction: NA
Pressure: 29.87"   Gusts: NA
Location:  37.3°N, 84.21°W
Report Text: KLOZ 270808Z AUTO 00000KT 6SM UP BKN011 OVC017 M01/M04 A2987 RMK AO2 UPB0757 P0000 T10111044
Loading
Personal Weather Stations






























Interactive Weather Map New forecast layout! Learn more

10-Day Weather Forecast

Advertisements
Track Severe Weather on mobile